sensor_id;sensor_type;location;lat;lon;timestamp;P1;durP1;ratioP1;P2;durP2;ratioP2
67997;SDS011;54773;53.388;-1.504;2023-06-01T00:06:54;12.13;;;6.70;;
67997;SDS011;54773;53.388;-1.504;2023-06-01T00:09:38;13.70;;;5.87;;
67997;SDS011;54773;53.388;-1.504;2023-06-01T00:12:22;11.73;;;7.00;;
67997;SDS011;54773;53.388;-1.504;2023-06-01T00:15:06;11.25;;;6.22;;
67997;SDS011;54773;53.388;-1.504;2023-06-01T00:17:54;10.85;;;6.43;;
67997;SDS011;54773;53.388;-1.504;2023-06-01T00:20:39;13.98;;;6.80;;
67997;SDS011;54773;53.388;-1.504;2023-06-01T00:23:23;15.85;;;7.03;;
67997;SDS011;54773;53.388;-1.504;2023-06-01T00:26:07;13.47;;;6.93;;
67997;SDS011;54773;53.388;-1.504;2023-06-01T00:28:52;12.20;;;6.85;;
67997;SDS011;54773;53.388;-1.504;2023-06-01T00:31:36;13.53;;;6.83;;
67997;SDS011;54773;53.388;-1.504;2023-06-01T00:34:20;13.90;;;7.35;;
67997;SDS011;54773;53.388;-1.504;2023-06-01T00:37:05;14.07;;;6.60;;
67997;SDS011;54773;53.388;-1.504;2023-06-01T00:39:49;13.07;;;7.13;;
67997;SDS011;54773;53.388;-1.504;2023-06-01T00:42:33;13.55;;;7.25;;
67997;SDS011;54773;53.388;-1.504;2023-06-01T00:45:18;14.00;;;6.85;;
67997;SDS011;54773;53.388;-1.504;2023-06-01T00:48:01;13.98;;;6.78;;
67997;SDS011;54773;53.388;-1.504;2023-06-01T00:50:46;13.98;;;7.13;;
67997;SDS011;54773;53.388;-1.504;2023-06-01T00:53:30;11.68;;;6.35;;
67997;SDS011;54773;53.388;-1.504;2023-06-01T00:56:15;14.52;;;7.25;;
67997;SDS011;54773;53.388;-1.504;2023-06-01T00:58:59;13.55;;;6.32;;
67997;SDS011;54773;53.388;-1.504;2023-06-01T01:01:43;11.77;;;6.60;;
67997;SDS011;54773;53.388;-1.504;2023-06-01T01:04:27;15.10;;;7.23;;
67997;SDS011;54773;53.388;-1.504;2023-06-01T01:07:31;11.82;;;6.63;;
67997;SDS011;54773;53.388;-1.504;2023-06-01T01:13:20;10.15;;;6.13;;
67997;SDS011;54773;53.388;-1.504;2023-06-01T01:19:06;11.52;;;6.35;;
67997;SDS011;54773;53.388;-1.504;2023-06-01T01:21:57;14.13;;;7.50;;
67997;SDS011;54773;53.388;-1.504;2023-06-01T01:25:10;14.25;;;8.02;;
67997;SDS011;54773;53.388;-1.504;2023-06-01T01:31:22;14.10;;;7.15;;
67997;SDS011;54773;53.388;-1.504;2023-06-01T01:34:07;12.25;;;7.35;;
67997;SDS011;54773;53.388;-1.504;2023-06-01T01:36:52;13.85;;;7.63;;
67997;SDS011;54773;53.388;-1.504;2023-06-01T01:39:36;11.80;;;6.47;;
67997;SDS011;54773;53.388;-1.504;2023-06-01T01:42:21;12.90;;;7.15;;
67997;SDS011;54773;53.388;-1.504;2023-06-01T01:45:05;14.20;;;6.90;;
67997;SDS011;54773;53.388;-1.504;2023-06-01T01:48:03;13.02;;;6.72;;
67997;SDS011;54773;53.388;-1.504;2023-06-01T01:50:56;14.43;;;7.35;;
67997;SDS011;54773;53.388;-1.504;2023-06-01T01:53:42;13.63;;;7.50;;
67997;SDS011;54773;53.388;-1.504;2023-06-01T01:56:27;13.10;;;6.93;;
67997;SDS011;54773;53.388;-1.504;2023-06-01T01:59:12;17.73;;;7.70;;
67997;SDS011;54773;53.388;-1.504;2023-06-01T02:01:57;14.50;;;7.53;;
67997;SDS011;54773;53.388;-1.504;2023-06-01T02:04:41;13.23;;;7.35;;
67997;SDS011;54773;53.388;-1.504;2023-06-01T02:07:26;13.15;;;7.28;;
67997;SDS011;54773;53.388;-1.504;2023-06-01T02:10:10;17.15;;;8.35;;
67997;SDS011;54773;53.388;-1.504;2023-06-01T02:12:55;16.52;;;8.10;;
67997;SDS011;54773;53.388;-1.504;2023-06-01T02:15:39;15.60;;;8.27;;
67997;SDS011;54773;53.388;-1.504;2023-06-01T02:18:24;19.50;;;9.27;;
67997;SDS011;54773;53.388;-1.504;2023-06-01T02:21:09;14.00;;;7.28;;
67997;SDS011;54773;53.388;-1.504;2023-06-01T02:23:53;14.05;;;7.78;;
67997;SDS011;54773;53.388;-1.504;2023-06-01T02:26:38;16.95;;;8.55;;
67997;SDS011;54773;53.388;-1.504;2023-06-01T02:29:22;17.85;;;8.27;;
67997;SDS011;54773;53.388;-1.504;2023-06-01T02:32:06;16.92;;;7.63;;
67997;SDS011;54773;53.388;-1.504;2023-06-01T02:34:52;16.55;;;8.15;;
67997;SDS011;54773;53.388;-1.504;2023-06-01T02:37:37;17.58;;;7.90;;
67997;SDS011;54773;53.388;-1.504;2023-06-01T02:40:22;14.75;;;7.78;;
67997;SDS011;54773;53.388;-1.504;2023-06-01T02:43:10;19.75;;;7.93;;
67997;SDS011;54773;53.388;-1.504;2023-06-01T02:45:55;14.50;;;7.97;;
67997;SDS011;54773;53.388;-1.504;2023-06-01T02:48:42;15.55;;;8.57;;
67997;SDS011;54773;53.388;-1.504;2023-06-01T02:51:26;17.55;;;8.63;;
67997;SDS011;54773;53.388;-1.504;2023-06-01T02:54:12;14.32;;;8.68;;
67997;SDS011;54773;53.388;-1.504;2023-06-01T02:56:57;18.20;;;9.30;;
67997;SDS011;54773;53.388;-1.504;2023-06-01T02:59:41;17.15;;;8.52;;
67997;SDS011;54773;53.388;-1.504;2023-06-01T03:02:24;14.20;;;8.30;;
67997;SDS011;54773;53.388;-1.504;2023-06-01T03:08:52;14.23;;;7.07;;
67997;SDS011;54773;53.388;-1.504;2023-06-01T03:11:40;13.00;;;6.47;;
67997;SDS011;54773;53.388;-1.504;2023-06-01T03:14:24;16.45;;;7.22;;
67997;SDS011;54773;53.388;-1.504;2023-06-01T03:17:08;12.07;;;6.87;;
67997;SDS011;54773;53.388;-1.504;2023-06-01T03:22:44;16.73;;;8.48;;
67997;SDS011;54773;53.388;-1.504;2023-06-01T03:25:29;15.93;;;8.35;;
67997;SDS011;54773;53.388;-1.504;2023-06-01T03:28:13;15.90;;;8.63;;
67997;SDS011;54773;53.388;-1.504;2023-06-01T03:30:58;17.80;;;9.30;;
67997;SDS011;54773;53.388;-1.504;2023-06-01T03:33:42;17.08;;;9.48;;
67997;SDS011;54773;53.388;-1.504;2023-06-01T03:36:26;16.57;;;8.77;;
67997;SDS011;54773;53.388;-1.504;2023-06-01T03:39:11;15.95;;;8.80;;
67997;SDS011;54773;53.388;-1.504;2023-06-01T03:41:55;19.10;;;9.60;;
67997;SDS011;54773;53.388;-1.504;2023-06-01T03:44:39;16.33;;;8.52;;
67997;SDS011;54773;53.388;-1.504;2023-06-01T03:47:25;16.60;;;8.23;;
67997;SDS011;54773;53.388;-1.504;2023-06-01T03:50:09;18.80;;;8.13;;
67997;SDS011;54773;53.388;-1.504;2023-06-01T03:52:53;17.92;;;8.68;;
67997;SDS011;54773;53.388;-1.504;2023-06-01T03:55:38;14.82;;;8.50;;
67997;SDS011;54773;53.388;-1.504;2023-06-01T03:58:22;16.05;;;8.55;;
67997;SDS011;54773;53.388;-1.504;2023-06-01T04:01:07;14.82;;;8.10;;
67997;SDS011;54773;53.388;-1.504;2023-06-01T04:03:51;16.47;;;8.47;;
67997;SDS011;54773;53.388;-1.504;2023-06-01T04:06:36;16.13;;;8.50;;
67997;SDS011;54773;53.388;-1.504;2023-06-01T04:09:20;21.35;;;9.45;;
67997;SDS011;54773;53.388;-1.504;2023-06-01T04:12:05;15.95;;;8.05;;
67997;SDS011;54773;53.388;-1.504;2023-06-01T04:14:49;14.60;;;7.85;;
67997;SDS011;54773;53.388;-1.504;2023-06-01T04:17:35;14.93;;;8.53;;
67997;SDS011;54773;53.388;-1.504;2023-06-01T04:20:20;14.10;;;7.78;;
67997;SDS011;54773;53.388;-1.504;2023-06-01T04:23:04;18.07;;;9.57;;
67997;SDS011;54773;53.388;-1.504;2023-06-01T04:25:48;16.93;;;9.67;;
67997;SDS011;54773;53.388;-1.504;2023-06-01T04:28:35;18.58;;;8.73;;
67997;SDS011;54773;53.388;-1.504;2023-06-01T04:31:20;15.77;;;8.35;;
67997;SDS011;54773;53.388;-1.504;2023-06-01T04:34:04;17.08;;;8.63;;
67997;SDS011;54773;53.388;-1.504;2023-06-01T04:36:53;17.05;;;7.85;;
67997;SDS011;54773;53.388;-1.504;2023-06-01T04:39:38;16.48;;;8.73;;
67997;SDS011;54773;53.388;-1.504;2023-06-01T04:42:22;17.92;;;9.98;;
67997;SDS011;54773;53.388;-1.504;2023-06-01T04:45:06;14.17;;;8.43;;
67997;SDS011;54773;53.388;-1.504;2023-06-01T04:47:53;19.10;;;8.70;;
67997;SDS011;54773;53.388;-1.504;2023-06-01T04:50:40;16.65;;;8.80;;
67997;SDS011;54773;53.388;-1.504;2023-06-01T04:53:25;18.30;;;9.13;;
67997;SDS011;54773;53.388;-1.504;2023-06-01T04:56:10;15.98;;;8.43;;
67997;SDS011;54773;53.388;-1.504;2023-06-01T04:58:54;19.52;;;8.43;;
67997;SDS011;54773;53.388;-1.504;2023-06-01T05:01:39;19.67;;;9.07;;
67997;SDS011;54773;53.388;-1.504;2023-06-01T05:04:23;19.02;;;9.65;;
67997;SDS011;54773;53.388;-1.504;2023-06-01T05:07:07;16.07;;;8.93;;
67997;SDS011;54773;53.388;-1.504;2023-06-01T05:09:51;19.70;;;9.18;;
67997;SDS011;54773;53.388;-1.504;2023-06-01T05:12:35;18.23;;;9.23;;
67997;SDS011;54773;53.388;-1.504;2023-06-01T05:15:20;18.55;;;9.43;;
67997;SDS011;54773;53.388;-1.504;2023-06-01T05:18:04;16.10;;;9.20;;
67997;SDS011;54773;53.388;-1.504;2023-06-01T05:20:49;18.02;;;8.93;;
67997;SDS011;54773;53.388;-1.504;2023-06-01T05:23:32;16.33;;;8.47;;
67997;SDS011;54773;53.388;-1.504;2023-06-01T05:26:16;15.53;;;8.53;;
67997;SDS011;54773;53.388;-1.504;2023-06-01T05:29:00;14.82;;;7.88;;
67997;SDS011;54773;53.388;-1.504;2023-06-01T05:31:45;15.90;;;7.70;;
67997;SDS011;54773;53.388;-1.504;2023-06-01T05:34:30;15.07;;;8.20;;
67997;SDS011;54773;53.388;-1.504;2023-06-01T05:37:14;13.63;;;7.23;;
67997;SDS011;54773;53.388;-1.504;2023-06-01T05:40:01;16.63;;;6.83;;
67997;SDS011;54773;53.388;-1.504;2023-06-01T05:42:46;13.00;;;6.85;;
67997;SDS011;54773;53.388;-1.504;2023-06-01T05:45:30;14.10;;;7.13;;
67997;SDS011;54773;53.388;-1.504;2023-06-01T05:48:14;12.23;;;7.22;;
67997;SDS011;54773;53.388;-1.504;2023-06-01T05:50:58;13.45;;;6.63;;
67997;SDS011;54773;53.388;-1.504;2023-06-01T05:53:43;12.18;;;6.88;;
67997;SDS011;54773;53.388;-1.504;2023-06-01T05:56:27;15.05;;;7.18;;
67997;SDS011;54773;53.388;-1.504;2023-06-01T05:59:11;12.33;;;6.30;;
67997;SDS011;54773;53.388;-1.504;2023-06-01T06:01:55;13.30;;;6.28;;
67997;SDS011;54773;53.388;-1.504;2023-06-01T06:04:39;13.83;;;6.83;;
67997;SDS011;54773;53.388;-1.504;2023-06-01T06:07:24;15.70;;;7.25;;
67997;SDS011;54773;53.388;-1.504;2023-06-01T06:10:11;19.53;;;7.20;;
67997;SDS011;54773;53.388;-1.504;2023-06-01T06:12:55;15.05;;;6.38;;
67997;SDS011;54773;53.388;-1.504;2023-06-01T06:15:39;16.58;;;8.07;;
67997;SDS011;54773;53.388;-1.504;2023-06-01T06:18:26;12.20;;;6.70;;
67997;SDS011;54773;53.388;-1.504;2023-06-01T06:21:11;13.13;;;6.47;;
67997;SDS011;54773;53.388;-1.504;2023-06-01T06:23:55;11.18;;;6.43;;
67997;SDS011;54773;53.388;-1.504;2023-06-01T06:26:42;14.90;;;6.85;;
67997;SDS011;54773;53.388;-1.504;2023-06-01T06:29:26;15.13;;;7.43;;
67997;SDS011;54773;53.388;-1.504;2023-06-01T06:32:10;10.87;;;6.33;;
67997;SDS011;54773;53.388;-1.504;2023-06-01T06:34:54;14.57;;;7.20;;
67997;SDS011;54773;53.388;-1.504;2023-06-01T06:37:41;14.88;;;7.43;;
67997;SDS011;54773;53.388;-1.504;2023-06-01T06:40:27;11.40;;;6.20;;
67997;SDS011;54773;53.388;-1.504;2023-06-01T06:43:11;14.27;;;6.82;;
67997;SDS011;54773;53.388;-1.504;2023-06-01T06:45:57;12.27;;;6.60;;
67997;SDS011;54773;53.388;-1.504;2023-06-01T06:48:41;9.73;;;6.20;;
67997;SDS011;54773;53.388;-1.504;2023-06-01T06:51:28;12.47;;;5.80;;
67997;SDS011;54773;53.388;-1.504;2023-06-01T06:54:12;11.85;;;6.38;;
67997;SDS011;54773;53.388;-1.504;2023-06-01T06:56:56;13.85;;;6.47;;
67997;SDS011;54773;53.388;-1.504;2023-06-01T06:59:42;11.27;;;6.10;;
67997;SDS011;54773;53.388;-1.504;2023-06-01T07:02:26;12.23;;;6.35;;
67997;SDS011;54773;53.388;-1.504;2023-06-01T07:05:10;10.98;;;5.60;;
67997;SDS011;54773;53.388;-1.504;2023-06-01T07:07:55;10.20;;;5.55;;
67997;SDS011;54773;53.388;-1.504;2023-06-01T07:10:39;8.35;;;4.70;;
67997;SDS011;54773;53.388;-1.504;2023-06-01T07:13:23;12.82;;;5.97;;
67997;SDS011;54773;53.388;-1.504;2023-06-01T07:16:10;12.65;;;6.07;;
67997;SDS011;54773;53.388;-1.504;2023-06-01T07:18:55;12.13;;;5.75;;
67997;SDS011;54773;53.388;-1.504;2023-06-01T07:21:40;9.27;;;5.80;;
67997;SDS011;54773;53.388;-1.504;2023-06-01T07:24:24;10.57;;;5.90;;
67997;SDS011;54773;53.388;-1.504;2023-06-01T07:27:09;11.07;;;5.18;;
67997;SDS011;54773;53.388;-1.504;2023-06-01T07:29:53;12.55;;;5.75;;
67997;SDS011;54773;53.388;-1.504;2023-06-01T07:32:39;10.35;;;5.55;;
67997;SDS011;54773;53.388;-1.504;2023-06-01T07:35:24;10.57;;;5.30;;
67997;SDS011;54773;53.388;-1.504;2023-06-01T07:38:07;10.40;;;6.20;;
67997;SDS011;54773;53.388;-1.504;2023-06-01T07:40:55;10.05;;;5.20;;
67997;SDS011;54773;53.388;-1.504;2023-06-01T07:43:38;10.27;;;5.55;;
67997;SDS011;54773;53.388;-1.504;2023-06-01T07:46:22;9.25;;;5.38;;
67997;SDS011;54773;53.388;-1.504;2023-06-01T07:49:07;10.30;;;5.50;;
67997;SDS011;54773;53.388;-1.504;2023-06-01T07:51:51;11.20;;;5.67;;
67997;SDS011;54773;53.388;-1.504;2023-06-01T07:57:22;9.90;;;5.85;;
67997;SDS011;54773;53.388;-1.504;2023-06-01T08:00:07;12.43;;;6.75;;
67997;SDS011;54773;53.388;-1.504;2023-06-01T08:02:55;9.80;;;6.13;;
67997;SDS011;54773;53.388;-1.504;2023-06-01T08:05:41;8.88;;;5.45;;
67997;SDS011;54773;53.388;-1.504;2023-06-01T08:08:28;9.95;;;5.88;;
67997;SDS011;54773;53.388;-1.504;2023-06-01T08:11:13;11.93;;;6.00;;
67997;SDS011;54773;53.388;-1.504;2023-06-01T08:13:57;10.60;;;5.60;;
67997;SDS011;54773;53.388;-1.504;2023-06-01T08:16:43;10.93;;;5.63;;
67997;SDS011;54773;53.388;-1.504;2023-06-01T08:19:27;9.13;;;5.50;;
67997;SDS011;54773;53.388;-1.504;2023-06-01T08:22:11;10.18;;;6.15;;
67997;SDS011;54773;53.388;-1.504;2023-06-01T08:24:55;8.97;;;6.07;;
67997;SDS011;54773;53.388;-1.504;2023-06-01T08:27:41;9.75;;;5.65;;
67997;SDS011;54773;53.388;-1.504;2023-06-01T08:30:26;9.00;;;5.07;;
67997;SDS011;54773;53.388;-1.504;2023-06-01T08:33:10;13.80;;;6.53;;
67997;SDS011;54773;53.388;-1.504;2023-06-01T08:35:53;8.83;;;5.47;;
67997;SDS011;54773;53.388;-1.504;2023-06-01T08:38:38;8.07;;;4.97;;
67997;SDS011;54773;53.388;-1.504;2023-06-01T08:41:30;9.25;;;5.00;;
67997;SDS011;54773;53.388;-1.504;2023-06-01T08:44:21;10.80;;;5.28;;
67997;SDS011;54773;53.388;-1.504;2023-06-01T08:47:06;10.30;;;5.78;;
67997;SDS011;54773;53.388;-1.504;2023-06-01T08:49:51;10.82;;;5.78;;
67997;SDS011;54773;53.388;-1.504;2023-06-01T08:52:36;9.88;;;5.55;;
67997;SDS011;54773;53.388;-1.504;2023-06-01T08:55:22;12.45;;;5.88;;
67997;SDS011;54773;53.388;-1.504;2023-06-01T08:58:05;10.35;;;5.28;;
67997;SDS011;54773;53.388;-1.504;2023-06-01T09:00:50;8.68;;;5.10;;
67997;SDS011;54773;53.388;-1.504;2023-06-01T09:03:34;10.85;;;5.85;;
67997;SDS011;54773;53.388;-1.504;2023-06-01T09:06:18;9.50;;;5.45;;
67997;SDS011;54773;53.388;-1.504;2023-06-01T09:09:02;10.20;;;5.17;;
67997;SDS011;54773;53.388;-1.504;2023-06-01T09:11:46;11.50;;;5.80;;
67997;SDS011;54773;53.388;-1.504;2023-06-01T09:14:30;10.75;;;5.78;;
67997;SDS011;54773;53.388;-1.504;2023-06-01T09:17:20;9.50;;;5.33;;
67997;SDS011;54773;53.388;-1.504;2023-06-01T09:20:05;10.90;;;5.10;;
67997;SDS011;54773;53.388;-1.504;2023-06-01T09:25:34;9.43;;;5.22;;
67997;SDS011;54773;53.388;-1.504;2023-06-01T09:28:18;8.37;;;4.37;;
67997;SDS011;54773;53.388;-1.504;2023-06-01T09:31:02;10.03;;;5.23;;
67997;SDS011;54773;53.388;-1.504;2023-06-01T09:33:58;8.25;;;5.10;;
67997;SDS011;54773;53.388;-1.504;2023-06-01T09:36:44;8.85;;;5.30;;
67997;SDS011;54773;53.388;-1.504;2023-06-01T09:39:28;8.77;;;4.65;;
67997;SDS011;54773;53.388;-1.504;2023-06-01T09:42:17;7.35;;;4.38;;
67997;SDS011;54773;53.388;-1.504;2023-06-01T09:45:20;9.65;;;5.55;;
67997;SDS011;54773;53.388;-1.504;2023-06-01T09:48:18;9.75;;;4.78;;
67997;SDS011;54773;53.388;-1.504;2023-06-01T09:51:02;11.43;;;5.47;;
67997;SDS011;54773;53.388;-1.504;2023-06-01T09:53:47;8.55;;;4.38;;
67997;SDS011;54773;53.388;-1.504;2023-06-01T09:56:52;8.05;;;4.20;;
67997;SDS011;54773;53.388;-1.504;2023-06-01T09:59:39;7.25;;;3.90;;
67997;SDS011;54773;53.388;-1.504;2023-06-01T10:02:27;7.55;;;3.65;;
67997;SDS011;54773;53.388;-1.504;2023-06-01T10:05:15;5.60;;;2.92;;
67997;SDS011;54773;53.388;-1.504;2023-06-01T10:07:59;5.05;;;2.85;;
67997;SDS011;54773;53.388;-1.504;2023-06-01T10:10:45;6.47;;;3.25;;
67997;SDS011;54773;53.388;-1.504;2023-06-01T10:13:30;6.50;;;3.00;;
67997;SDS011;54773;53.388;-1.504;2023-06-01T10:16:18;4.72;;;2.75;;
67997;SDS011;54773;53.388;-1.504;2023-06-01T10:19:04;5.68;;;2.80;;
67997;SDS011;54773;53.388;-1.504;2023-06-01T10:21:49;6.18;;;2.42;;
67997;SDS011;54773;53.388;-1.504;2023-06-01T10:24:35;4.90;;;2.83;;
67997;SDS011;54773;53.388;-1.504;2023-06-01T10:27:35;5.25;;;2.35;;
67997;SDS011;54773;53.388;-1.504;2023-06-01T10:30:23;6.53;;;2.20;;
67997;SDS011;54773;53.388;-1.504;2023-06-01T10:33:07;4.68;;;2.17;;
67997;SDS011;54773;53.388;-1.504;2023-06-01T10:35:51;5.75;;;1.73;;
67997;SDS011;54773;53.388;-1.504;2023-06-01T10:38:35;3.97;;;1.60;;
67997;SDS011;54773;53.388;-1.504;2023-06-01T10:41:30;4.53;;;1.48;;
67997;SDS011;54773;53.388;-1.504;2023-06-01T10:52:50;5.03;;;1.67;;
67997;SDS011;54773;53.388;-1.504;2023-06-01T10:55:34;3.95;;;1.70;;
67997;SDS011;54773;53.388;-1.504;2023-06-01T10:58:19;4.57;;;1.87;;
67997;SDS011;54773;53.388;-1.504;2023-06-01T11:01:05;4.50;;;2.05;;
67997;SDS011;54773;53.388;-1.504;2023-06-01T11:03:50;5.03;;;2.17;;
67997;SDS011;54773;53.388;-1.504;2023-06-01T11:06:38;5.97;;;2.10;;
67997;SDS011;54773;53.388;-1.504;2023-06-01T11:09:24;4.47;;;1.98;;
67997;SDS011;54773;53.388;-1.504;2023-06-01T11:12:39;5.28;;;2.53;;
67997;SDS011;54773;53.388;-1.504;2023-06-01T11:19:03;5.85;;;2.50;;
67997;SDS011;54773;53.388;-1.504;2023-06-01T11:21:48;5.07;;;2.53;;
67997;SDS011;54773;53.388;-1.504;2023-06-01T11:24:48;7.60;;;3.13;;
67997;SDS011;54773;53.388;-1.504;2023-06-01T11:27:41;5.40;;;2.85;;
67997;SDS011;54773;53.388;-1.504;2023-06-01T11:30:26;5.32;;;2.95;;
67997;SDS011;54773;53.388;-1.504;2023-06-01T11:33:11;4.95;;;2.70;;
67997;SDS011;54773;53.388;-1.504;2023-06-01T11:35:59;5.00;;;2.83;;
67997;SDS011;54773;53.388;-1.504;2023-06-01T11:38:43;10.23;;;3.00;;
67997;SDS011;54773;53.388;-1.504;2023-06-01T11:41:29;6.07;;;3.03;;
67997;SDS011;54773;53.388;-1.504;2023-06-01T11:44:13;5.97;;;3.35;;
67997;SDS011;54773;53.388;-1.504;2023-06-01T11:46:57;6.78;;;3.17;;
67997;SDS011;54773;53.388;-1.504;2023-06-01T11:49:46;6.45;;;3.22;;
67997;SDS011;54773;53.388;-1.504;2023-06-01T11:52:33;7.45;;;3.50;;
67997;SDS011;54773;53.388;-1.504;2023-06-01T11:55:18;6.55;;;3.42;;
67997;SDS011;54773;53.388;-1.504;2023-06-01T11:58:02;5.72;;;3.30;;
67997;SDS011;54773;53.388;-1.504;2023-06-01T12:00:47;7.43;;;2.55;;
67997;SDS011;54773;53.388;-1.504;2023-06-01T12:03:32;4.15;;;2.65;;
67997;SDS011;54773;53.388;-1.504;2023-06-01T12:06:22;4.20;;;2.25;;
67997;SDS011;54773;53.388;-1.504;2023-06-01T12:09:09;4.65;;;2.25;;
67997;SDS011;54773;53.388;-1.504;2023-06-01T12:11:54;4.80;;;2.53;;
67997;SDS011;54773;53.388;-1.504;2023-06-01T12:14:38;5.28;;;2.55;;
67997;SDS011;54773;53.388;-1.504;2023-06-01T12:17:24;5.28;;;2.42;;
67997;SDS011;54773;53.388;-1.504;2023-06-01T12:20:08;4.65;;;2.33;;
67997;SDS011;54773;53.388;-1.504;2023-06-01T12:22:52;5.18;;;2.53;;
67997;SDS011;54773;53.388;-1.504;2023-06-01T12:25:53;7.30;;;2.85;;
67997;SDS011;54773;53.388;-1.504;2023-06-01T12:28:51;6.55;;;3.08;;
67997;SDS011;54773;53.388;-1.504;2023-06-01T12:31:39;7.10;;;3.10;;
67997;SDS011;54773;53.388;-1.504;2023-06-01T12:34:23;5.70;;;3.15;;
67997;SDS011;54773;53.388;-1.504;2023-06-01T12:37:17;7.10;;;2.78;;
67997;SDS011;54773;53.388;-1.504;2023-06-01T12:40:02;5.65;;;3.15;;
67997;SDS011;54773;53.388;-1.504;2023-06-01T12:42:47;5.45;;;2.95;;
67997;SDS011;54773;53.388;-1.504;2023-06-01T12:45:34;7.40;;;3.30;;
67997;SDS011;54773;53.388;-1.504;2023-06-01T12:48:35;6.20;;;3.10;;
67997;SDS011;54773;53.388;-1.504;2023-06-01T12:51:20;5.45;;;2.75;;
67997;SDS011;54773;53.388;-1.504;2023-06-01T12:54:05;6.15;;;2.95;;
67997;SDS011;54773;53.388;-1.504;2023-06-01T12:56:49;4.78;;;2.90;;
67997;SDS011;54773;53.388;-1.504;2023-06-01T12:59:34;6.40;;;3.03;;
67997;SDS011;54773;53.388;-1.504;2023-06-01T13:02:18;4.95;;;2.75;;
67997;SDS011;54773;53.388;-1.504;2023-06-01T13:05:02;5.70;;;2.60;;
67997;SDS011;54773;53.388;-1.504;2023-06-01T13:07:49;4.82;;;2.90;;
67997;SDS011;54773;53.388;-1.504;2023-06-01T13:10:33;6.38;;;3.33;;
67997;SDS011;54773;53.388;-1.504;2023-06-01T13:13:17;8.03;;;2.70;;
67997;SDS011;54773;53.388;-1.504;2023-06-01T13:16:01;4.80;;;3.17;;
67997;SDS011;54773;53.388;-1.504;2023-06-01T13:18:47;5.72;;;3.17;;
67997;SDS011;54773;53.388;-1.504;2023-06-01T13:21:33;5.50;;;3.15;;
67997;SDS011;54773;53.388;-1.504;2023-06-01T13:24:17;5.90;;;3.10;;
67997;SDS011;54773;53.388;-1.504;2023-06-01T13:27:01;5.70;;;2.77;;
67997;SDS011;54773;53.388;-1.504;2023-06-01T13:29:48;5.57;;;2.70;;
67997;SDS011;54773;53.388;-1.504;2023-06-01T13:32:33;5.43;;;2.50;;
67997;SDS011;54773;53.388;-1.504;2023-06-01T13:35:17;4.18;;;2.10;;
67997;SDS011;54773;53.388;-1.504;2023-06-01T13:38:02;5.75;;;2.20;;
67997;SDS011;54773;53.388;-1.504;2023-06-01T13:40:46;3.53;;;2.00;;
67997;SDS011;54773;53.388;-1.504;2023-06-01T13:43:31;3.70;;;2.20;;
67997;SDS011;54773;53.388;-1.504;2023-06-01T13:46:15;3.78;;;2.00;;
67997;SDS011;54773;53.388;-1.504;2023-06-01T13:48:59;4.60;;;2.63;;
67997;SDS011;54773;53.388;-1.504;2023-06-01T13:51:43;3.80;;;2.58;;
67997;SDS011;54773;53.388;-1.504;2023-06-01T13:54:27;5.10;;;2.60;;
67997;SDS011;54773;53.388;-1.504;2023-06-01T13:57:11;7.03;;;2.47;;
67997;SDS011;54773;53.388;-1.504;2023-06-01T13:59:56;5.30;;;2.65;;
67997;SDS011;54773;53.388;-1.504;2023-06-01T14:02:40;6.93;;;3.00;;
67997;SDS011;54773;53.388;-1.504;2023-06-01T14:05:24;5.55;;;3.00;;
67997;SDS011;54773;53.388;-1.504;2023-06-01T14:08:08;5.53;;;2.57;;
67997;SDS011;54773;53.388;-1.504;2023-06-01T14:10:52;5.47;;;2.72;;
67997;SDS011;54773;53.388;-1.504;2023-06-01T14:13:36;4.10;;;2.67;;
67997;SDS011;54773;53.388;-1.504;2023-06-01T14:16:20;5.87;;;2.63;;
67997;SDS011;54773;53.388;-1.504;2023-06-01T14:19:06;6.38;;;2.80;;
67997;SDS011;54773;53.388;-1.504;2023-06-01T14:21:50;4.97;;;2.47;;
67997;SDS011;54773;53.388;-1.504;2023-06-01T14:24:34;4.40;;;2.95;;
67997;SDS011;54773;53.388;-1.504;2023-06-01T14:27:18;5.35;;;3.08;;
67997;SDS011;54773;53.388;-1.504;2023-06-01T14:30:03;5.82;;;2.65;;
67997;SDS011;54773;53.388;-1.504;2023-06-01T14:32:48;3.97;;;2.03;;
67997;SDS011;54773;53.388;-1.504;2023-06-01T14:35:32;4.20;;;1.70;;
67997;SDS011;54773;53.388;-1.504;2023-06-01T14:38:16;4.70;;;1.65;;
67997;SDS011;54773;53.388;-1.504;2023-06-01T14:41:00;4.47;;;1.50;;
67997;SDS011;54773;53.388;-1.504;2023-06-01T14:43:44;6.13;;;1.83;;
67997;SDS011;54773;53.388;-1.504;2023-06-01T14:46:29;4.07;;;1.77;;
67997;SDS011;54773;53.388;-1.504;2023-06-01T14:49:13;3.58;;;1.60;;
67997;SDS011;54773;53.388;-1.504;2023-06-01T14:51:57;2.88;;;1.40;;
67997;SDS011;54773;53.388;-1.504;2023-06-01T14:54:41;5.72;;;1.63;;
67997;SDS011;54773;53.388;-1.504;2023-06-01T14:57:25;7.00;;;1.55;;
67997;SDS011;54773;53.388;-1.504;2023-06-01T15:00:09;6.00;;;1.80;;
67997;SDS011;54773;53.388;-1.504;2023-06-01T15:02:54;6.00;;;1.92;;
67997;SDS011;54773;53.388;-1.504;2023-06-01T15:05:38;4.43;;;2.10;;
67997;SDS011;54773;53.388;-1.504;2023-06-01T15:08:22;4.20;;;2.25;;
67997;SDS011;54773;53.388;-1.504;2023-06-01T15:11:07;8.32;;;2.53;;
67997;SDS011;54773;53.388;-1.504;2023-06-01T15:13:51;4.93;;;2.13;;
67997;SDS011;54773;53.388;-1.504;2023-06-01T15:16:35;4.63;;;2.15;;
67997;SDS011;54773;53.388;-1.504;2023-06-01T15:19:19;4.77;;;2.17;;
67997;SDS011;54773;53.388;-1.504;2023-06-01T15:22:03;5.53;;;2.10;;
67997;SDS011;54773;53.388;-1.504;2023-06-01T15:24:48;5.88;;;2.08;;
67997;SDS011;54773;53.388;-1.504;2023-06-01T15:27:32;3.95;;;2.10;;
67997;SDS011;54773;53.388;-1.504;2023-06-01T15:30:16;4.50;;;1.80;;
67997;SDS011;54773;53.388;-1.504;2023-06-01T15:33:00;6.90;;;2.13;;
67997;SDS011;54773;53.388;-1.504;2023-06-01T15:35:43;5.23;;;2.17;;
67997;SDS011;54773;53.388;-1.504;2023-06-01T15:38:27;7.30;;;2.40;;
67997;SDS011;54773;53.388;-1.504;2023-06-01T15:41:11;10.63;;;2.35;;
67997;SDS011;54773;53.388;-1.504;2023-06-01T15:43:55;6.40;;;2.75;;
67997;SDS011;54773;53.388;-1.504;2023-06-01T15:46:39;6.30;;;2.38;;
67997;SDS011;54773;53.388;-1.504;2023-06-01T15:49:23;8.10;;;3.45;;
67997;SDS011;54773;53.388;-1.504;2023-06-01T15:52:07;7.05;;;3.08;;
67997;SDS011;54773;53.388;-1.504;2023-06-01T15:54:52;8.48;;;3.42;;
67997;SDS011;54773;53.388;-1.504;2023-06-01T15:57:38;10.73;;;3.80;;
67997;SDS011;54773;53.388;-1.504;2023-06-01T16:00:22;7.20;;;3.95;;
67997;SDS011;54773;53.388;-1.504;2023-06-01T16:03:06;8.13;;;4.17;;
67997;SDS011;54773;53.388;-1.504;2023-06-01T16:05:50;7.97;;;3.55;;
67997;SDS011;54773;53.388;-1.504;2023-06-01T16:08:34;10.10;;;3.60;;
67997;SDS011;54773;53.388;-1.504;2023-06-01T16:11:20;7.75;;;3.60;;
67997;SDS011;54773;53.388;-1.504;2023-06-01T16:14:04;7.20;;;3.53;;
67997;SDS011;54773;53.388;-1.504;2023-06-01T16:16:48;8.18;;;3.53;;
67997;SDS011;54773;53.388;-1.504;2023-06-01T16:19:32;7.75;;;4.38;;
67997;SDS011;54773;53.388;-1.504;2023-06-01T16:22:16;9.88;;;4.40;;
67997;SDS011;54773;53.388;-1.504;2023-06-01T16:25:01;9.38;;;4.05;;
67997;SDS011;54773;53.388;-1.504;2023-06-01T16:27:46;7.35;;;2.63;;
67997;SDS011;54773;53.388;-1.504;2023-06-01T16:30:30;9.93;;;2.83;;
67997;SDS011;54773;53.388;-1.504;2023-06-01T16:33:21;9.02;;;3.03;;
67997;SDS011;54773;53.388;-1.504;2023-06-01T16:36:05;8.35;;;3.00;;
67997;SDS011;54773;53.388;-1.504;2023-06-01T16:38:49;9.30;;;2.92;;
67997;SDS011;54773;53.388;-1.504;2023-06-01T16:41:33;9.90;;;3.10;;
67997;SDS011;54773;53.388;-1.504;2023-06-01T16:44:17;9.40;;;3.63;;
67997;SDS011;54773;53.388;-1.504;2023-06-01T16:47:01;9.18;;;3.38;;
67997;SDS011;54773;53.388;-1.504;2023-06-01T16:49:46;11.02;;;3.25;;
67997;SDS011;54773;53.388;-1.504;2023-06-01T16:52:30;9.95;;;3.30;;
67997;SDS011;54773;53.388;-1.504;2023-06-01T16:55:14;9.10;;;2.97;;